Time;durP1;ratioP1;P1;durP2;ratioP2;P2;SDS_P1;SDS_P2;PMS_P1;PMS_P2;Temp;Humidity;BMP_temperature;BMP_pressure;BME280_temperature;BME280_humidity;BME280_pressure;Samples;Min_cycle;Max_cycle;Signal;HPM_P1;HPM_P2
2023/10/03 00:04:15;;;;;;;9.75;6.53;;;;;;;13.96;96.28;152192.69;10416556;28;20076;-73
2023/10/03 00:09:17;;;;;;;10.50;6.57;;;;;;;13.97;95.97;152195.25;10419490;28;20049;-73
2023/10/03 00:14:18;;;;;;;8.95;6.05;;;;;;;13.81;97.64;152155.16;10417612;28;20072;-72
2023/10/03 00:19:21;;;;;;;8.60;7.10;;;;;;;13.89;96.36;152175.81;10416602;28;20470;-72
2023/10/03 00:24:22;;;;;;;9.95;6.68;;;;;;;13.91;96.89;152179.75;10415127;28;20044;-74
2023/10/03 00:29:29;;;;;;;10.57;6.40;;;;;;;13.94;96.67;152186.19;10417192;28;20045;-74
2023/10/03 00:34:31;;;;;;;;;;;;;;;14.16;94.10;152241.84;10415942;28;20124;-73
2023/10/03 00:39:33;;;;;;;8.30;5.75;;;;;;;13.98;95.24;152197.84;10416723;28;19931;-73
2023/10/03 00:44:37;;;;;;;6.82;4.55;;;;;;;13.79;96.46;152149.97;10424556;28;20040;-74
2023/10/03 00:49:40;;;;;;;7.53;4.97;;;;;;;13.78;96.73;152146.09;10425044;28;20037;-73
2023/10/03 00:54:42;;;;;;;7.05;5.15;;;;;;;13.75;96.09;152138.31;10424629;28;20429;-73
2023/10/03 00:59:44;;;;;;;7.35;5.05;;;;;;;13.60;97.77;152102.09;10424543;28;20072;-73
2023/10/03 01:04:46;;;;;;;7.38;5.15;;;;;;;13.52;97.58;152080.09;10424835;28;20045;-74
2023/10/03 01:09:48;;;;;;;8.27;5.15;;;;;;;13.72;98.16;152131.81;10424207;28;20053;-73
2023/10/03 01:14:50;;;;;;;7.75;4.30;;;;;;;13.78;97.05;152146.09;10424668;28;20033;-73
2023/10/03 01:19:52;;;;;;;6.35;4.07;;;;;;;13.83;97.16;152159.03;10421081;28;20060;-74
2023/10/03 01:24:55;;;;;;;6.00;4.38;;;;;;;13.80;96.77;152151.25;10422938;28;20108;-73
2023/10/03 01:29:57;;;;;;;6.40;4.50;;;;;;;13.71;98.73;152129.25;10420886;28;20120;-73
2023/10/03 01:35:07;;;;;;;6.70;4.55;;;;;;;13.79;98.89;152148.66;10423142;28;20536;-73
2023/10/03 01:40:13;;;;;;;6.88;3.65;;;;;;;13.69;99.21;152122.81;10421938;28;20045;-73
2023/10/03 01:45:17;;;;;;;8.33;5.07;;;;;;;13.49;99.19;152073.59;10421094;28;20029;-72
2023/10/03 01:50:21;;;;;;;6.43;4.03;;;;;;;13.65;99.31;152113.72;10419667;28;20288;-73
2023/10/03 01:55:23;;;;;;;6.78;4.78;;;;;;;13.69;99.45;152124.09;10420549;28;20124;-73
2023/10/03 02:00:26;;;;;;;5.18;3.50;;;;;;;13.61;100.00;152103.38;10419484;28;20052;-73
2023/10/03 02:05:28;;;;;;;9.52;4.20;;;;;;;13.74;98.92;152137.03;10419211;28;20465;-73
2023/10/03 02:10:32;;;;;;;5.60;3.95;;;;;;;13.64;98.98;152111.16;10419045;28;20065;-73
2023/10/03 02:15:36;;;;;;;7.03;4.25;;;;;;;13.60;99.78;152100.78;10418631;28;20064;-73
2023/10/03 02:20:47;;;;;;;8.05;3.88;;;;;;;13.50;100.00;152076.22;10420387;28;20046;-73
2023/10/03 02:25:50;;;;;;;7.55;4.43;;;;;;;13.32;100.00;152029.59;10420294;28;20057;-73
2023/10/03 02:30:52;;;;;;;6.20;4.18;;;;;;;13.32;100.00;152030.88;10419591;28;20046;-70
2023/10/03 02:35:54;;;;;;;6.40;4.70;;;;;;;13.16;100.00;151989.47;10417600;28;20048;-70
2023/10/03 02:40:57;;;;;;;6.00;4.05;;;;;;;13.06;100.00;151964.91;10418486;28;20136;-70
2023/10/03 02:46:12;;;;;;;6.15;4.65;;;;;;;13.24;100.00;152010.22;10401365;28;20041;-70
2023/10/03 02:51:20;;;;;;;4.38;3.85;;;;;;;13.42;99.96;152055.50;10417646;28;20386;-71
2023/10/03 02:56:22;;;;;;;7.43;4.68;;;;;;;13.46;98.19;152064.53;10416926;28;20503;-70
2023/10/03 03:01:24;;;;;;;8.32;4.53;;;;;;;13.41;99.51;152051.59;10401917;28;20042;-70
2023/10/03 03:06:28;;;;;;;6.25;4.40;;;;;;;13.45;99.68;152061.94;10415697;28;20128;-70
2023/10/03 03:11:31;;;;;;;6.68;4.30;;;;;;;13.44;99.45;152060.66;10416158;28;20053;-70
2023/10/03 03:16:34;;;;;;;8.85;4.93;;;;;;;13.56;98.46;152091.72;10417129;28;20116;-70
2023/10/03 03:21:36;;;;;;;6.70;4.70;;;;;;;13.63;97.70;152109.88;10417750;28;20046;-70
2023/10/03 03:26:39;;;;;;;5.28;3.95;;;;;;;13.68;98.93;152121.50;10417501;28;20099;-70
2023/10/03 03:31:42;;;;;;;6.20;4.15;;;;;;;13.71;98.15;152127.94;10417398;28;20038;-70
2023/10/03 03:36:46;;;;;;;5.57;3.83;;;;;;;13.80;97.58;152151.25;10417084;28;20045;-70
2023/10/03 03:41:49;;;;;;;6.78;4.50;;;;;;;13.94;97.30;152187.47;10415582;28;20068;-70
2023/10/03 03:46:52;;;;;;;5.80;3.80;;;;;;;14.08;95.14;152222.47;10416800;28;20049;-70
2023/10/03 03:51:54;;;;;;;6.53;4.43;;;;;;;14.10;95.45;152227.63;10415981;28;20140;-70
2023/10/03 03:56:56;;;;;;;6.10;3.95;;;;;;;14.11;94.65;152231.50;10416577;28;20088;-70
2023/10/03 04:01:59;;;;;;;6.78;3.95;;;;;;;14.17;94.38;152245.78;10416731;28;20061;-70
2023/10/03 04:07:02;;;;;;;5.78;4.57;;;;;;;14.16;93.81;152243.13;10416402;28;20075;-70
2023/10/03 04:12:04;;;;;;;6.00;4.07;;;;;;;13.98;95.12;152197.84;10417108;28;20121;-70
2023/10/03 04:17:08;;;;;;;7.53;4.50;;;;;;;14.02;94.99;152206.91;10421677;28;20132;-70
2023/10/03 04:22:10;;;;;;;5.75;3.97;;;;;;;14.12;93.87;152234.13;10424281;28;20128;-70
2023/10/03 04:27:13;;;;;;;6.18;4.40;;;;;;;13.94;94.76;152187.47;10422622;28;20103;-70
2023/10/03 04:32:14;;;;;;;6.82;4.30;;;;;;;13.84;94.73;152161.59;10425218;28;20505;-70
2023/10/03 04:37:16;;;;;;;5.53;3.65;;;;;;;13.83;94.87;152160.31;10423999;28;20206;-72
2023/10/03 04:42:18;;;;;;;7.55;4.68;;;;;;;13.74;95.85;152137.03;10423569;28;20386;-72
2023/10/03 04:47:22;;;;;;;7.15;4.32;;;;;;;13.77;94.30;152144.81;10424528;28;20508;-73
2023/10/03 04:52:24;;;;;;;7.13;4.43;;;;;;;13.56;95.72;152091.72;10426950;28;20069;-73
2023/10/03 04:57:27;;;;;;;5.47;4.10;;;;;;;13.37;97.26;152042.59;10423222;28;20208;-72
2023/10/03 05:02:29;;;;;;;7.60;4.05;;;;;;;13.31;98.31;152027.03;10423926;28;20068;-72
2023/10/03 05:07:31;;;;;;;9.93;4.75;;;;;;;13.26;99.22;152015.38;10423560;28;20068;-72
2023/10/03 05:12:33;;;;;;;6.78;4.18;;;;;;;13.35;98.38;152037.38;10427666;28;20037;-73
2023/10/03 05:17:35;;;;;;;7.50;4.13;;;;;;;13.26;99.22;152014.09;10422536;28;20045;-73
2023/10/03 05:22:37;;;;;;;8.23;4.63;;;;;;;13.23;99.81;152007.59;10423760;28;20049;-73
2023/10/03 05:27:49;;;;;;;8.20;5.78;;;;;;;13.40;99.05;152050.31;10421863;28;20452;-73
2023/10/03 05:32:51;;;;;;;7.07;5.22;;;;;;;13.47;98.87;152067.16;10406431;28;20049;-73
2023/10/03 05:37:53;;;;;;;7.05;4.93;;;;;;;13.73;96.88;152133.16;10423730;28;20073;-72
2023/10/03 05:42:57;;;;;;;7.07;4.25;;;;;;;13.80;96.49;152152.53;10421338;28;20038;-73
2023/10/03 05:47:59;;;;;;;14.07;4.55;;;;;;;13.93;96.07;152183.59;10421056;28;20129;-72
2023/10/03 05:53:01;;;;;;;8.13;4.38;;;;;;;14.13;94.42;152236.69;10421653;28;20047;-72
2023/10/03 05:58:06;;;;;;;6.05;4.10;;;;;;;14.38;92.04;152298.81;10421394;28;20040;-72
2023/10/03 06:03:09;;;;;;;6.28;4.07;;;;;;;14.46;91.81;152319.53;10420342;28;20046;-72
2023/10/03 06:08:14;;;;;;;7.55;4.93;;;;;;;14.64;91.56;152364.91;10420575;28;20091;-72
2023/10/03 06:13:16;;;;;;;7.70;4.30;;;;;;;15.11;87.38;152485.38;10419927;28;20041;-72
2023/10/03 06:18:19;;;;;;;6.50;4.00;;;;;;;15.38;85.42;152554.03;10422495;28;20056;-73
2023/10/03 06:23:21;;;;;;;6.90;4.88;;;;;;;15.52;85.03;152589.03;10402903;28;20076;-72
2023/10/03 06:28:23;;;;;;;6.07;4.30;;;;;;;15.77;83.18;152652.59;10420796;28;20046;-73
2023/10/03 06:33:25;;;;;;;7.45;4.50;;;;;;;15.89;82.29;152683.72;10402944;28;20405;-73
2023/10/03 06:38:27;;;;;;;9.13;5.32;;;;;;;16.06;81.11;152726.44;10421252;28;20095;-73
2023/10/03 06:43:29;;;;;;;6.32;4.50;;;;;;;16.12;81.71;152740.75;10419442;28;20539;-72
2023/10/03 06:48:30;;;;;;;6.35;3.90;;;;;;;16.25;81.57;152773.16;10418920;28;20045;-72
2023/10/03 06:53:32;;;;;;;9.80;4.47;;;;;;;16.84;78.27;152924.91;10417305;28;20045;-72
2023/10/03 06:58:34;;;;;;;6.93;4.15;;;;;;;16.98;78.80;152958.66;10417582;28;20145;-72
2023/10/03 07:03:36;;;;;;;6.50;4.38;;;;;;;17.09;77.34;152988.50;10420059;28;20462;-72
2023/10/03 07:08:41;;;;;;;5.45;3.92;;;;;;;17.31;75.75;153044.28;10416847;28;20041;-72
2023/10/03 07:13:44;;;;;;;5.78;4.20;;;;;;;17.68;74.22;153137.69;10417932;28;20136;-72
2023/10/03 07:18:45;;;;;;;5.88;4.03;;;;;;;17.87;74.69;153185.75;10417562;28;20045;-72
2023/10/03 07:23:47;;;;;;;6.15;4.18;;;;;;;18.24;73.32;153279.22;10418202;28;20041;-72
2023/10/03 07:28:49;;;;;;;5.75;4.15;;;;;;;18.64;70.83;153383.13;10418810;28;20052;-72
2023/10/03 07:33:52;;;;;;;6.03;4.00;;;;;;;18.70;70.70;153397.44;10416620;28;20441;-71
2023/10/03 07:38:54;;;;;;;5.47;3.97;;;;;;;18.79;69.74;153420.81;10416484;28;20045;-72
2023/10/03 07:43:56;;;;;;;5.82;3.78;;;;;;;18.85;70.07;153436.38;10415829;28;20052;-71
2023/10/03 07:48:58;;;;;;;5.93;3.85;;;;;;;19.03;69.85;153480.56;10415785;28;20053;-71
2023/10/03 07:54:02;;;;;;;6.13;4.15;;;;;;;19.23;69.64;153531.25;10415730;28;20049;-72
2023/10/03 07:59:04;;;;;;;6.65;3.78;;;;;;;19.48;67.77;153594.88;10416517;28;20101;-72
2023/10/03 08:04:12;;;;;;;6.22;4.03;;;;;;;19.72;67.26;153657.31;10416308;28;20581;-72
2023/10/03 08:09:15;;;;;;;6.13;4.20;;;;;;;19.87;67.31;153695.00;10419099;28;20141;-72
2023/10/03 08:14:18;;;;;;;6.25;4.53;;;;;;;20.11;67.13;153756.13;10416781;28;20046;-72
2023/10/03 08:19:24;;;;;;;5.88;3.88;;;;;;;20.02;66.16;153734.03;10415681;28;20444;-72
2023/10/03 08:24:28;;;;;;;5.70;3.90;;;;;;;20.55;62.86;153867.97;10414995;28;20099;-71
2023/10/03 08:29:32;;;;;;;4.93;3.50;;;;;;;20.60;63.61;153882.28;10429244;28;20048;-72
2023/10/03 08:34:42;;;;;;;6.00;4.50;;;;;;;20.87;61.73;153951.19;10471711;28;20068;-72
2023/10/03 08:39:46;;;;;;;6.40;4.70;;;;;;;21.32;59.71;154064.41;10476974;28;20049;-71
2023/10/03 08:44:52;;;;;;;5.82;3.97;;;;;;;21.35;59.61;154072.22;10456897;28;20091;-72
2023/10/03 08:50:11;;;;;;;5.55;3.95;;;;;;;22.08;57.63;154259.59;10493330;28;20488;-71
2023/10/03 08:55:21;;;;;;;6.95;4.68;;;;;;;22.44;56.32;154350.75;10492908;28;20043;-72
2023/10/03 09:00:26;;;;;;;6.50;4.13;;;;;;;23.23;54.54;154552.66;10484891;28;20065;-71
2023/10/03 09:05:28;;;;;;;5.25;3.88;;;;;;;23.64;52.72;154658.25;10463103;28;20071;-71
2023/10/03 09:10:31;;;;;;;5.90;4.55;;;;;;;24.55;48.68;154890.25;10465467;28;20500;-71
2023/10/03 09:15:42;;;;;;;5.57;3.80;;;;;;;25.37;43.63;155098.97;10499597;28;20120;-71
2023/10/03 09:20:44;;;;;;;5.50;4.10;;;;;;;25.96;42.28;155250.31;10505557;28;20044;-71
2023/10/03 09:25:55;;;;;;;4.13;3.60;;;;;;;26.10;40.72;155286.84;10472358;28;20111;-70
2023/10/03 09:30:57;;;;;;;5.75;4.53;;;;;;;25.95;41.13;155246.41;10449584;28;20075;-70
2023/10/03 09:36:02;;;;;;;5.78;3.70;;;;;;;25.96;41.00;155249.00;10462279;28;20045;-70
2023/10/03 09:41:04;;;;;;;4.72;3.15;;;;;;;26.13;40.60;155294.69;10462670;28;20129;-70
2023/10/03 09:46:06;;;;;;;5.57;3.38;;;;;;;26.57;40.69;155405.66;10462715;28;20041;-70
2023/10/03 09:51:08;;;;;;;6.20;3.97;;;;;;;26.61;39.47;155417.41;10462392;28;20052;-71
2023/10/03 09:56:13;;;;;;;4.20;3.15;;;;;;;26.36;40.07;155352.09;10464675;28;20467;-70
2023/10/03 10:01:18;;;;;;;4.57;3.63;;;;;;;26.32;41.20;155341.66;10460963;28;20179;-70
2023/10/03 10:06:40;;;;;;;;;;;;;;;26.52;39.98;155393.91;10462865;28;20448;-72
2023/10/03 10:12:14;;;;;;;3.88;3.38;;;;;;;26.47;41.15;155380.84;10460811;28;20377;-71
2023/10/03 10:17:16;;;;;;;4.13;2.90;;;;;;;26.50;40.96;155387.38;10460926;28;20458;-71
2023/10/03 10:22:18;;;;;;;5.03;3.05;;;;;;;26.75;40.18;155451.34;10460238;28;20425;-71
2023/10/03 10:27:21;;;;;;;4.32;3.03;;;;;;;26.95;39.31;155502.25;10460738;28;20061;-71
2023/10/03 10:32:24;;;;;;;4.28;3.38;;;;;;;27.02;39.92;155521.81;10458909;28;20052;-71
2023/10/03 10:37:28;;;;;;;3.30;2.67;;;;;;;27.42;38.26;155623.72;10461321;28;20116;-72
2023/10/03 10:42:30;;;;;;;4.75;3.03;;;;;;;27.65;37.15;155683.78;10461064;28;20075;-71
2023/10/03 10:47:34;;;;;;;4.53;3.17;;;;;;;27.79;38.01;155719.09;10458807;28;20052;-70
2023/10/03 10:52:53;;;;;;;3.92;3.17;;;;;;;27.64;38.22;155681.19;10458341;28;20114;-71
2023/10/03 10:58:09;;;;;;;4.03;2.85;;;;;;;27.58;37.12;155665.53;10459373;28;20044;-70
2023/10/03 11:03:11;;;;;;;4.68;3.25;;;;;;;27.41;38.59;155621.13;10460605;28;20087;-70
2023/10/03 11:08:14;;;;;;;4.00;2.83;;;;;;;27.35;39.36;155606.72;10457815;28;20086;-70
2023/10/03 11:13:17;;;;;;;4.05;2.80;;;;;;;27.12;38.96;155547.97;10459128;28;20045;-71
2023/10/03 11:18:30;;;;;;;4.45;3.15;;;;;;;27.16;39.33;155558.44;10457440;28;20343;-70
2023/10/03 11:23:32;;;;;;;3.38;2.20;;;;;;;27.47;38.24;155635.47;10459496;28;20462;-71
2023/10/03 11:28:51;;;;;;;3.72;2.80;;;;;;;27.54;38.29;155655.06;10459800;28;20043;-70
2023/10/03 11:33:59;;;;;;;4.10;2.72;;;;;;;27.80;38.42;155720.38;10459268;28;20060;-70
2023/10/03 11:39:01;;;;;;;3.55;2.80;;;;;;;27.84;39.01;155730.84;10457108;28;20131;-70
2023/10/03 11:44:15;;;;;;;3.75;2.88;;;;;;;27.86;38.57;155737.41;10442206;28;20541;-70
2023/10/03 11:49:17;;;;;;;3.70;3.10;;;;;;;27.90;38.82;155746.53;10418246;28;20076;-71
2023/10/03 11:54:20;;;;;;;3.97;2.58;;;;;;;27.95;38.72;155758.31;10416603;28;20035;-70
2023/10/03 11:59:22;;;;;;;4.15;2.35;;;;;;;28.01;38.76;155773.97;10419080;28;20037;-70
2023/10/03 12:04:24;;;;;;;3.50;2.58;;;;;;;27.67;39.60;155689.03;10426245;28;20079;-70
2023/10/03 12:09:26;;;;;;;3.88;2.42;;;;;;;27.93;40.08;155754.34;10457756;28;20531;-70
2023/10/03 12:14:29;;;;;;;4.40;2.83;;;;;;;28.03;40.31;155780.50;10455939;28;20045;-70
2023/10/03 12:19:31;;;;;;;4.57;2.20;;;;;;;28.09;39.61;155796.16;10456301;28;20059;-70
2023/10/03 12:24:33;;;;;;;2.13;1.70;;;;;;;27.89;40.70;155743.91;10456703;28;20093;-70
2023/10/03 12:29:35;;;;;;;2.97;2.00;;;;;;;27.79;41.09;155719.09;10459608;28;20041;-69
2023/10/03 12:34:37;;;;;;;3.38;2.50;;;;;;;27.75;40.99;155708.63;10456474;28;20041;-71
2023/10/03 12:39:39;;;;;;;4.18;2.08;;;;;;;27.50;40.71;155644.63;10464329;28;20087;-70
2023/10/03 12:44:41;;;;;;;2.85;1.90;;;;;;;27.48;42.13;155639.38;10463840;28;20071;-70
2023/10/03 12:49:43;;;;;;;3.33;2.55;;;;;;;27.42;41.36;155623.72;10465152;28;20041;-70
2023/10/03 12:54:45;;;;;;;3.05;2.03;;;;;;;27.20;41.20;155567.56;10465241;28;20041;-70
2023/10/03 12:59:49;;;;;;;2.85;2.25;;;;;;;26.91;42.13;155493.09;10464889;28;20049;-70
2023/10/03 13:04:51;;;;;;;4.47;2.60;;;;;;;26.97;42.44;155507.47;10463964;28;20037;-70
2023/10/03 13:09:56;;;;;;;3.83;2.70;;;;;;;26.94;42.70;155500.94;10464052;28;20095;-70
2023/10/03 13:15:01;;;;;;;3.55;2.80;;;;;;;26.85;42.14;155478.75;10464031;28;20029;-70
2023/10/03 13:20:07;;;;;;;3.15;2.15;;;;;;;26.76;41.96;155453.94;10465272;28;20049;-71
2023/10/03 13:25:18;;;;;;;3.08;2.47;;;;;;;26.69;42.03;155435.66;10463739;28;20045;-72
2023/10/03 13:30:27;;;;;;;3.40;2.35;;;;;;;26.72;41.80;155443.50;10462179;28;20048;-71
2023/10/03 13:35:35;;;;;;;3.90;2.30;;;;;;;26.81;41.34;155467.00;10465364;28;20096;-71
2023/10/03 13:40:37;;;;;;;4.72;2.67;;;;;;;26.61;41.72;155416.13;10463528;28;20041;-71
2023/10/03 13:45:39;;;;;;;4.00;2.28;;;;;;;26.59;42.65;155412.16;10461491;28;20045;-71
2023/10/03 13:50:41;;;;;;;7.40;2.78;;;;;;;26.52;41.36;155392.56;10462067;28;20041;-71
2023/10/03 13:55:43;;;;;;;4.93;2.38;;;;;;;26.46;41.05;155376.94;10462807;28;20048;-71
2023/10/03 14:00:45;;;;;;;4.65;2.17;;;;;;;26.35;41.26;155350.78;10463598;28;20091;-71
2023/10/03 14:05:47;;;;;;;3.72;2.17;;;;;;;26.24;41.81;155322.06;10462310;28;20045;-71
2023/10/03 14:10:49;;;;;;;2.65;2.08;;;;;;;26.16;41.87;155301.19;10460402;28;20052;-71
2023/10/03 14:15:51;;;;;;;4.40;2.55;;;;;;;26.21;42.11;155314.28;10461241;28;20112;-71
2023/10/03 14:20:55;;;;;;;4.32;2.55;;;;;;;26.09;42.59;155284.25;10462485;28;20079;-70
2023/10/03 14:25:57;;;;;;;3.30;2.42;;;;;;;26.02;42.90;155265.94;10460973;28;20033;-71
2023/10/03 14:31:03;;;;;;;2.90;2.15;;;;;;;26.00;42.89;155259.47;10460817;28;20095;-71
2023/10/03 14:36:05;;;;;;;3.58;2.55;;;;;;;25.83;43.04;155217.69;10461374;28;20037;-71
2023/10/03 14:41:07;;;;;;;4.53;2.33;;;;;;;25.63;43.72;155166.78;10460827;28;20099;-71
2023/10/03 14:46:10;;;;;;;3.70;2.58;;;;;;;25.54;44.38;155141.97;10458706;28;20143;-72
2023/10/03 14:51:12;;;;;;;2.78;2.42;;;;;;;25.48;45.13;155127.63;10460467;28;20067;-71
2023/10/03 14:56:14;;;;;;;4.03;2.28;;;;;;;25.45;45.68;155118.50;10459549;28;20417;-71
2023/10/03 15:01:16;;;;;;;4.35;3.40;;;;;;;25.36;46.04;155096.31;10459826;28;20041;-70
2023/10/03 15:06:18;;;;;;;3.97;2.60;;;;;;;25.41;46.33;155109.34;10460090;28;20102;-70
2023/10/03 15:11:21;;;;;;;3.95;2.65;;;;;;;25.37;46.59;155098.97;10459314;28;20040;-71
2023/10/03 15:16:22;;;;;;;3.10;2.10;;;;;;;25.14;47.09;155041.53;10460298;28;20044;-71
2023/10/03 15:21:25;;;;;;;3.83;3.05;;;;;;;24.97;47.42;154997.19;10457634;28;20524;-71
2023/10/03 15:26:26;;;;;;;4.88;2.25;;;;;;;24.94;48.01;154989.34;10459188;28;20041;-71
2023/10/03 15:31:28;;;;;;;2.97;2.28;;;;;;;24.78;48.48;154947.63;10458671;28;20041;-72
2023/10/03 15:36:35;;;;;;;3.60;2.55;;;;;;;24.79;48.70;154950.22;10456800;28;20055;-72
2023/10/03 15:41:37;;;;;;;2.83;2.15;;;;;;;24.63;48.09;154911.13;10459047;28;20048;-72
2023/10/03 15:46:39;;;;;;;2.47;1.70;;;;;;;24.49;47.22;154874.63;10460093;28;20059;-71
2023/10/03 15:51:41;;;;;;;2.55;1.67;;;;;;;24.48;47.22;154872.03;10459201;28;20128;-71
2023/10/03 15:56:44;;;;;;;2.03;1.83;;;;;;;24.35;47.70;154839.41;10458828;28;20056;-71
2023/10/03 16:01:46;;;;;;;1.73;1.40;;;;;;;24.34;49.29;154836.75;10457931;28;20386;-71
2023/10/03 16:06:48;;;;;;;2.78;1.42;;;;;;;23.24;58.21;154555.28;10457964;28;20041;-72
2023/10/03 16:11:53;;;;;;;2.80;1.83;;;;;;;22.05;70.95;154251.81;10460524;28;20412;-72
2023/10/03 16:16:59;;;;;;;3.85;1.88;;;;;;;21.19;75.54;154031.84;10459230;28;20095;-72
2023/10/03 16:22:02;;;;;;;2.10;1.80;;;;;;;20.91;78.75;153960.31;10459395;28;20059;-73
2023/10/03 16:27:04;;;;;;;1.95;1.58;;;;;;;20.75;77.76;153918.69;10459555;28;20508;-74
2023/10/03 16:32:09;;;;;;;1.73;1.60;;;;;;;20.71;78.79;153908.28;10462789;28;20045;-73
2023/10/03 16:37:11;;;;;;;1.77;1.40;;;;;;;20.62;79.60;153887.44;10458136;28;20064;-73
2023/10/03 16:42:13;;;;;;;3.22;1.80;;;;;;;20.53;81.43;153864.06;10457461;28;20055;-74
2023/10/03 16:47:14;;;;;;;2.40;2.20;;;;;;;20.54;80.92;153866.69;10457868;28;20037;-74
2023/10/03 16:52:17;;;;;;;2.75;2.00;;;;;;;20.17;87.95;153771.69;10459783;28;20049;-72
2023/10/03 16:57:18;;;;;;;3.80;2.63;;;;;;;19.14;100.00;153510.44;10456560;28;20045;-74
2023/10/03 17:02:20;;;;;;;2.00;1.30;;;;;;;18.45;100.00;153332.47;10459065;28;20053;-70
2023/10/03 17:07:23;;;;;;;2.70;1.25;;;;;;;17.93;100.00;153200.03;10456150;28;20389;-72
2023/10/03 17:12:24;;;;;;;2.13;1.30;;;;;;;17.85;100.00;153180.59;10457155;28;20044;-70
2023/10/03 17:17:26;;;;;;;2.58;1.25;;;;;;;17.68;100.00;153136.41;10457942;28;20048;-70
2023/10/03 17:22:28;;;;;;;2.30;1.25;;;;;;;17.46;100.00;153081.91;10458487;28;20052;-70
2023/10/03 17:27:30;;;;;;;3.78;0.90;;;;;;;17.30;100.00;153040.38;10464421;28;20045;-70
2023/10/03 17:32:32;;;;;;;2.35;1.05;;;;;;;17.04;100.00;152974.19;10464453;28;20072;-70
2023/10/03 17:37:34;;;;;;;1.40;0.90;;;;;;;16.94;100.00;152948.25;10467541;28;20049;-71
2023/10/03 17:42:37;;;;;;;3.10;0.95;;;;;;;16.72;100.00;152892.44;10466414;28;20068;-70
2023/10/03 17:47:39;;;;;;;1.73;1.10;;;;;;;16.59;100.00;152861.31;10462455;28;20485;-70
2023/10/03 17:52:43;;;;;;;1.95;1.10;;;;;;;16.36;100.00;152802.97;10464398;28;20045;-71
2023/10/03 17:57:45;;;;;;;1.33;0.90;;;;;;;16.18;100.00;152756.28;10465030;28;20044;-70
2023/10/03 18:02:48;;;;;;;1.98;0.93;;;;;;;16.21;100.00;152764.09;10463639;28;20041;-70
2023/10/03 18:07:53;;;;;;;1.10;0.80;;;;;;;16.22;100.00;152766.66;10464268;28;20056;-71
2023/10/03 18:12:59;;;;;;;1.55;0.90;;;;;;;16.26;100.00;152777.03;10464035;28;20112;-71
2023/10/03 18:18:02;;;;;;;1.15;0.85;;;;;;;16.17;100.00;152753.72;10464076;28;20064;-74
2023/10/03 18:23:04;;;;;;;1.83;0.95;;;;;;;16.08;100.00;152730.38;10465344;28;20075;-73
2023/10/03 18:28:08;;;;;;;1.92;0.88;;;;;;;16.14;100.00;152747.19;10463793;28;20452;-74
2023/10/03 18:33:12;;;;;;;1.00;0.85;;;;;;;16.13;100.00;152744.63;10463267;28;20068;-74
2023/10/03 18:38:15;;;;;;;1.92;1.15;;;;;;;16.26;100.00;152775.75;10463815;28;20037;-73
2023/10/03 18:43:20;;;;;;;1.35;0.80;;;;;;;16.28;100.00;152782.19;10466618;28;20041;-73
2023/10/03 18:48:22;;;;;;;0.82;0.63;;;;;;;16.29;100.00;152784.84;10460496;28;20045;-73
2023/10/03 18:53:23;;;;;;;1.02;0.90;;;;;;;16.28;100.00;152780.91;10462196;28;20044;-73
2023/10/03 18:58:27;;;;;;;1.42;1.08;;;;;;;16.31;100.00;152788.72;10462027;28;20081;-73
2023/10/03 19:03:30;;;;;;;1.40;0.80;;;;;;;16.33;100.00;152793.88;10462658;28;20041;-74
2023/10/03 19:08:32;;;;;;;1.67;0.75;;;;;;;16.32;100.00;152791.28;10461993;28;20072;-73
2023/10/03 19:13:34;;;;;;;0.98;0.70;;;;;;;16.35;100.00;152799.09;10460714;28;20460;-73
2023/10/03 19:18:35;;;;;;;1.35;0.90;;;;;;;16.31;100.00;152790.00;10445421;28;20454;-73
2023/10/03 19:23:38;;;;;;;1.42;0.90;;;;;;;16.27;100.00;152778.31;10435028;28;20037;-73
2023/10/03 19:28:41;;;;;;;1.38;1.00;;;;;;;16.14;100.00;152745.91;10442939;28;20041;-73
2023/10/03 19:33:43;;;;;;;1.67;0.70;;;;;;;16.15;100.00;152748.50;10436068;28;20041;-72
2023/10/03 19:38:45;;;;;;;1.00;0.73;;;;;;;16.11;100.00;152739.47;10436329;28;20103;-73
2023/10/03 19:43:49;;;;;;;0.80;0.80;;;;;;;16.12;100.00;152740.75;10417526;28;20059;-73
2023/10/03 19:48:51;;;;;;;1.10;0.70;;;;;;;16.18;100.00;152755.00;10404254;28;20103;-72
2023/10/03 19:53:55;;;;;;;1.00;0.70;;;;;;;16.19;100.00;152758.88;10409240;28;20046;-73
2023/10/03 19:58:58;;;;;;;0.63;0.52;;;;;;;16.14;100.00;152747.19;10455304;28;20048;-73
2023/10/03 20:04:00;;;;;;;1.38;0.70;;;;;;;15.79;100.00;152656.47;10461060;28;20044;-72
2023/10/03 20:09:04;;;;;;;0.68;0.40;;;;;;;15.34;100.00;152542.38;10461335;28;20103;-74
2023/10/03 20:14:10;;;;;;;0.20;0.20;;;;;;;14.80;100.00;152406.38;10458385;28;20045;-71
2023/10/03 20:19:12;;;;;;;0.30;0.20;;;;;;;14.57;100.00;152348.09;10459585;28;20102;-71
2023/10/03 20:24:14;;;;;;;0.40;0.20;;;;;;;14.52;100.00;152335.16;10458360;28;20059;-71
2023/10/03 20:29:16;;;;;;;0.30;0.30;;;;;;;14.41;100.00;152306.59;10458534;28;20542;-71
2023/10/03 20:34:18;;;;;;;0.45;0.35;;;;;;;14.30;100.00;152279.44;10460203;28;20033;-71
2023/10/03 20:39:20;;;;;;;1.65;0.30;;;;;;;14.01;100.00;152204.31;10457478;28;20049;-70
2023/10/03 20:44:23;;;;;;;0.52;0.40;;;;;;;13.73;100.00;152134.44;10457244;28;20037;-72
2023/10/03 20:49:24;;;;;;;1.00;0.50;;;;;;;13.81;100.00;152153.81;10457088;28;20040;-71
2023/10/03 20:54:26;;;;;;;0.43;0.40;;;;;;;13.67;100.00;152118.88;10459591;28;20535;-71
2023/10/03 20:59:29;;;;;;;1.08;0.70;;;;;;;13.77;100.00;152144.81;10465323;28;20064;-71
2023/10/03 21:04:32;;;;;;;1.00;0.60;;;;;;;13.67;100.00;152118.88;10464906;28;20511;-70
2023/10/03 21:09:34;;;;;;;1.27;0.40;;;;;;;13.68;100.00;152121.50;10464147;28;20075;-71
2023/10/03 21:14:36;;;;;;;1.33;0.50;;;;;;;13.73;100.00;152134.44;10464621;28;20041;-71
2023/10/03 21:19:38;;;;;;;1.25;0.60;;;;;;;13.70;100.00;152125.38;10465571;28;20037;-70
2023/10/03 21:24:40;;;;;;;2.28;0.60;;;;;;;13.56;100.00;152090.44;10464418;28;20033;-71
2023/10/03 21:29:42;;;;;;;1.13;0.70;;;;;;;13.68;100.00;152120.16;10465403;28;20106;-71
2023/10/03 21:34:44;;;;;;;1.42;0.93;;;;;;;13.58;100.00;152096.88;10462915;28;20044;-71
2023/10/03 21:39:46;;;;;;;1.73;0.90;;;;;;;13.48;100.00;152071.03;10465868;28;20051;-71
2023/10/03 21:44:48;;;;;;;1.73;1.02;;;;;;;13.52;100.00;152081.38;10463033;28;20068;-71
2023/10/03 21:49:50;;;;;;;1.55;0.70;;;;;;;13.44;100.00;152060.66;10463008;28;20056;-70
2023/10/03 21:54:54;;;;;;;1.80;0.70;;;;;;;13.45;100.00;152063.25;10462896;28;20056;-71
2023/10/03 21:59:55;;;;;;;1.38;0.70;;;;;;;13.35;100.00;152037.38;10465145;28;20049;-71
2023/10/03 22:04:57;;;;;;;2.00;0.70;;;;;;;13.50;100.00;152074.88;10464415;28;20041;-72
2023/10/03 22:09:59;;;;;;;1.88;0.63;;;;;;;13.31;100.00;152028.31;10461477;28;20072;-72
2023/10/03 22:15:02;;;;;;;1.65;0.60;;;;;;;13.41;100.00;152052.88;10462098;28;20068;-72
2023/10/03 22:20:05;;;;;;;1.02;0.43;;;;;;;13.43;100.00;152058.09;10462712;28;20048;-72
2023/10/03 22:25:08;;;;;;;2.33;0.80;;;;;;;13.36;100.00;152039.94;10462226;28;20543;-71
2023/10/03 22:30:12;;;;;;;1.75;0.60;;;;;;;13.42;100.00;152054.22;10462358;28;20439;-72
2023/10/03 22:35:15;;;;;;;1.90;0.50;;;;;;;13.35;100.00;152037.38;10459636;28;20071;-72
2023/10/03 22:40:17;;;;;;;1.17;0.60;;;;;;;13.33;100.00;152032.22;10442871;28;20045;-71
2023/10/03 22:45:19;;;;;;;1.73;1.02;;;;;;;13.26;100.00;152014.09;10460799;28;20440;-71
2023/10/03 22:50:20;;;;;;;1.38;0.50;;;;;;;13.18;100.00;151993.34;10460265;28;20409;-71
2023/10/03 22:55:22;;;;;;;1.10;0.47;;;;;;;13.03;100.00;151955.84;10459945;28;20041;-71
2023/10/03 23:00:24;;;;;;;1.80;0.60;;;;;;;12.94;100.00;151933.84;10459571;28;20588;-70
2023/10/03 23:05:28;;;;;;;0.50;0.30;;;;;;;12.81;100.00;151900.22;10461573;28;20106;-71
2023/10/03 23:10:30;;;;;;;1.35;0.45;;;;;;;12.82;100.00;151904.06;10457608;28;20052;-71